Lanesville, Illinois
Current Conditions -  °F | °C
As of 2:52 PM on Friday 31 Oct 2014 (Local Time) from KSPI Reporting Station
Few Clouds Few Clouds  
Wind Chill:   Ceiling: Unl
Heat Index:   Visibility: 10mi
Dew Point: -6°   Wind: 23mph
Humidity: 36%   Direction: 350°N
Pressure: 30.26"   Gusts: 38mph
Location:  39.8448°N, 89.3474°W
Report Text: KSPI 311952Z 35020G33KT 10SM FEW060 08/M06 A3026 RMK AO2 PK WND 33033/1947 SLP250 T00831061
Loading
Personal Weather Stations






























Interactive Weather Map
Tropical Storm Tracking
New forecast layout! Learn more

10-Day Weather Forecast

Advertisements
Track Severe Weather on mobile